createdAt,value
2022-09-30T00:01:36.921Z,56.63
2022-09-30T00:04:04.665Z,56.85
2022-09-30T00:06:35.236Z,56.83
2022-09-30T00:09:03.952Z,56.90
2022-09-30T00:11:34.585Z,56.73
2022-09-30T00:14:03.034Z,56.95
2022-09-30T00:16:35.798Z,56.75
2022-09-30T00:19:05.572Z,56.87
2022-09-30T00:21:35.341Z,57.10
2022-09-30T00:24:04.142Z,57.07
2022-09-30T00:26:32.587Z,56.72
2022-09-30T00:29:01.754Z,57.00
2022-09-30T00:31:33.472Z,56.96
2022-09-30T00:34:06.926Z,56.88
2022-09-30T00:36:50.677Z,56.98
2022-09-30T00:39:29.144Z,57.25
2022-09-30T00:42:00.213Z,57.37
2022-09-30T00:44:57.100Z,57.02
2022-09-30T00:47:44.105Z,57.14
2022-09-30T00:50:19.952Z,57.07
2022-09-30T00:52:54.233Z,57.38
2022-09-30T00:55:36.847Z,57.15
2022-09-30T00:58:08.983Z,57.11
2022-09-30T01:00:37.154Z,57.16
2022-09-30T01:03:06.052Z,57.32
2022-09-30T01:05:36.035Z,57.22
2022-09-30T01:08:05.774Z,57.54
2022-09-30T01:10:32.982Z,57.38
2022-09-30T01:13:00.284Z,57.51
2022-09-30T01:15:43.896Z,57.38
2022-09-30T01:18:52.692Z,57.28
2022-09-30T01:21:37.019Z,57.42
2022-09-30T01:24:35.480Z,57.36
2022-09-30T01:27:55.724Z,57.23
2022-09-30T01:31:04.806Z,57.63
2022-09-30T01:33:53.034Z,57.66
2022-09-30T01:36:35.159Z,57.54
2022-09-30T01:39:48.104Z,57.82
2022-09-30T01:42:51.818Z,57.62
2022-09-30T01:45:36.101Z,57.71
2022-09-30T01:48:23.964Z,57.66
2022-09-30T01:51:03.882Z,57.26
2022-09-30T01:53:41.136Z,57.65
2022-09-30T01:56:16.829Z,57.86
2022-09-30T01:59:07.239Z,57.73
2022-09-30T02:01:54.089Z,57.84
2022-09-30T02:04:34.867Z,57.83
2022-09-30T02:07:07.285Z,57.70
2022-09-30T02:09:39.277Z,57.91
2022-09-30T02:12:14.242Z,57.62
2022-09-30T02:14:51.873Z,57.76
2022-09-30T02:17:43.089Z,57.74
2022-09-30T02:20:27.457Z,57.70
2022-09-30T02:23:08.429Z,57.43
2022-09-30T02:25:45.050Z,57.80
2022-09-30T02:28:27.068Z,57.85
2022-09-30T02:31:00.232Z,57.73
2022-09-30T02:33:35.152Z,57.85
2022-09-30T02:36:21.005Z,57.75
2022-09-30T02:39:01.492Z,57.76
2022-09-30T02:41:35.918Z,57.72
2022-09-30T02:44:03.329Z,57.81
2022-09-30T02:47:31.885Z,57.93
2022-09-30T02:50:35.865Z,57.81
2022-09-30T02:53:26.567Z,57.66
2022-09-30T02:56:14.636Z,57.72
2022-09-30T02:58:43.953Z,57.62
2022-09-30T03:01:14.571Z,57.67
2022-09-30T03:04:01.663Z,57.78
2022-09-30T03:06:29.437Z,57.80
2022-09-30T03:08:56.751Z,57.84
2022-09-30T03:11:28.438Z,57.83
2022-09-30T03:14:16.971Z,58.00
2022-09-30T03:16:53.084Z,57.96
2022-09-30T03:19:37.135Z,57.81
2022-09-30T03:22:04.389Z,57.86
2022-09-30T03:25:09.104Z,57.71
2022-09-30T03:27:43.028Z,57.96
2022-09-30T03:30:17.921Z,57.78
2022-09-30T03:33:12.938Z,58.03
2022-09-30T03:36:08.116Z,58.05
2022-09-30T03:39:09.277Z,58.11
2022-09-30T03:41:54.502Z,57.99
2022-09-30T03:44:46.181Z,58.33
2022-09-30T03:47:17.171Z,58.46
2022-09-30T03:49:50.605Z,58.12
2022-09-30T03:52:18.687Z,58.43
2022-09-30T03:55:00.335Z,58.21
2022-09-30T03:57:30.565Z,58.15
2022-09-30T03:59:59.134Z,58.17
2022-09-30T04:02:27.241Z,58.41
2022-09-30T04:04:54.802Z,58.53
2022-09-30T04:07:21.800Z,58.61
2022-09-30T04:09:49.033Z,58.56
2022-09-30T04:12:16.099Z,58.83
2022-09-30T04:14:43.242Z,58.06
2022-09-30T04:17:10.633Z,58.33
2022-09-30T04:19:40.194Z,58.50
2022-09-30T04:22:08.764Z,58.29
2022-09-30T04:24:36.649Z,58.90
2022-09-30T04:27:04.067Z,58.50
2022-09-30T04:29:31.242Z,58.90
2022-09-30T04:31:58.285Z,58.58
2022-09-30T04:34:26.301Z,58.75
2022-09-30T04:36:53.406Z,58.99
2022-09-30T04:39:20.549Z,58.81
2022-09-30T04:41:48.097Z,58.98
2022-09-30T04:44:16.634Z,58.65
2022-09-30T04:46:44.444Z,58.46
2022-09-30T04:49:11.623Z,59.21
2022-09-30T04:51:39.416Z,58.76
2022-09-30T04:54:06.657Z,58.92
2022-09-30T04:56:33.630Z,58.79
2022-09-30T04:59:00.911Z,59.14
2022-09-30T05:01:27.999Z,59.00
2022-09-30T05:03:55.352Z,59.09
2022-09-30T05:06:22.557Z,58.90
2022-09-30T05:08:49.816Z,58.94
2022-09-30T05:11:21.488Z,59.29
2022-09-30T05:13:49.354Z,59.00
2022-09-30T05:16:17.901Z,59.32
2022-09-30T05:18:49.759Z,59.25
2022-09-30T05:21:20.874Z,59.22
2022-09-30T05:23:48.444Z,59.58
2022-09-30T05:26:16.115Z,59.23
2022-09-30T05:28:43.398Z,59.20
2022-09-30T05:31:13.441Z,59.23
2022-09-30T05:33:41.822Z,59.40
2022-09-30T05:36:14.943Z,59.36
2022-09-30T05:38:43.503Z,59.47
2022-09-30T05:41:14.914Z,59.49
2022-09-30T05:43:53.188Z,59.45
2022-09-30T05:46:21.238Z,59.46
2022-09-30T05:48:48.326Z,59.31
2022-09-30T05:51:15.517Z,59.34
2022-09-30T05:53:42.562Z,59.54
2022-09-30T05:56:12.371Z,59.71
2022-09-30T05:58:42.356Z,59.71
2022-09-30T06:01:15.355Z,59.77
2022-09-30T06:03:44.918Z,59.48
2022-09-30T06:06:12.995Z,59.72
2022-09-30T06:08:41.446Z,59.49
2022-09-30T06:11:23.613Z,59.77
2022-09-30T06:13:52.575Z,59.88
2022-09-30T06:16:20.513Z,59.88
2022-09-30T06:18:47.942Z,59.85
2022-09-30T06:21:18.051Z,60.20
2022-09-30T06:23:46.529Z,59.92
2022-09-30T06:26:14.813Z,59.67
2022-09-30T06:28:42.826Z,59.83
2022-09-30T06:31:11.439Z,59.83
2022-09-30T06:33:38.963Z,59.99
2022-09-30T06:36:06.972Z,60.22
2022-09-30T06:38:40.292Z,60.44
2022-09-30T06:41:08.491Z,60.31
2022-09-30T06:43:37.479Z,60.57
2022-09-30T06:46:20.371Z,60.24
2022-09-30T06:48:56.548Z,60.25
2022-09-30T06:51:33.003Z,60.31
2022-09-30T06:54:01.976Z,60.32
2022-09-30T06:56:29.338Z,60.25
2022-09-30T06:58:57.298Z,60.41
2022-09-30T07:01:24.851Z,60.55
2022-09-30T07:03:58.277Z,60.44
2022-09-30T07:06:28.864Z,60.46
2022-09-30T07:08:57.786Z,60.07
2022-09-30T07:11:25.815Z,60.34
2022-09-30T07:13:53.453Z,59.88
2022-09-30T07:16:21.476Z,59.93
2022-09-30T07:18:49.250Z,59.95
2022-09-30T07:21:17.264Z,60.10
2022-09-30T07:23:48.249Z,59.95
2022-09-30T07:26:24.106Z,60.32
2022-09-30T07:28:52.227Z,60.14
2022-09-30T07:31:32.987Z,60.17
2022-09-30T07:34:01.929Z,60.05
2022-09-30T07:36:33.153Z,59.87
2022-09-30T07:39:06.223Z,60.05
2022-09-30T07:41:38.041Z,59.67
2022-09-30T07:44:08.735Z,59.85
2022-09-30T07:46:39.030Z,59.68
2022-09-30T07:49:09.251Z,60.05
2022-09-30T07:51:42.012Z,59.85
2022-09-30T07:54:15.844Z,59.89
2022-09-30T07:57:09.108Z,59.65
2022-09-30T07:59:39.155Z,59.50
2022-09-30T08:02:13.863Z,59.81
2022-09-30T08:04:43.925Z,59.88
2022-09-30T08:07:14.463Z,59.93
2022-09-30T08:09:42.192Z,59.50
2022-09-30T08:12:09.995Z,60.06
2022-09-30T08:14:37.752Z,59.57
2022-09-30T08:17:07.619Z,59.74
2022-09-30T08:19:35.584Z,59.63
2022-09-30T08:24:31.329Z,59.76
2022-09-30T08:26:59.278Z,59.37
2022-09-30T08:29:53.236Z,59.81
2022-09-30T08:32:14.221Z,59.43
2022-09-30T08:34:42.117Z,59.53
2022-09-30T08:37:10.493Z,59.79
2022-09-30T08:39:38.764Z,59.99
2022-09-30T08:42:49.643Z,59.94
2022-09-30T08:45:48.955Z,60.32
2022-09-30T08:48:37.289Z,60.13
2022-09-30T08:51:16.926Z,60.38
2022-09-30T08:53:48.307Z,60.27
2022-09-30T08:56:31.293Z,60.03
2022-09-30T08:59:21.279Z,59.87
2022-09-30T09:01:52.309Z,59.80
2022-09-30T09:04:19.839Z,60.44
2022-09-30T09:07:28.138Z,60.04
2022-09-30T09:10:18.179Z,60.34
2022-09-30T09:13:13.382Z,60.16
2022-09-30T09:16:05.679Z,60.27
2022-09-30T09:18:58.742Z,59.87
2022-09-30T09:21:37.577Z,60.41
2022-09-30T09:24:14.399Z,60.31
2022-09-30T09:26:41.672Z,60.01
2022-09-30T09:29:54.167Z,59.56
2022-09-30T09:32:21.183Z,60.03
2022-09-30T09:34:58.845Z,59.17
2022-09-30T09:38:25.124Z,59.54
2022-09-30T09:41:20.696Z,59.07
2022-09-30T09:44:22.628Z,58.94
2022-09-30T09:47:05.068Z,59.23
2022-09-30T09:49:40.028Z,59.24
2022-09-30T09:52:12.446Z,58.39
2022-09-30T09:54:52.442Z,58.30
2022-09-30T09:57:32.206Z,57.88
2022-09-30T10:00:25.571Z,57.49
2022-09-30T10:03:20.973Z,57.46
2022-09-30T10:06:09.153Z,57.55
2022-09-30T10:08:40.515Z,56.58
2022-09-30T10:11:21.686Z,56.25
2022-09-30T10:13:51.415Z,56.30
2022-09-30T10:16:37.821Z,55.83
2022-09-30T10:19:20.252Z,55.88
2022-09-30T10:21:47.214Z,56.25
2022-09-30T10:24:30.745Z,55.92
2022-09-30T10:26:57.798Z,55.65
2022-09-30T10:29:29.766Z,55.04
2022-09-30T10:32:00.065Z,55.18
2022-09-30T10:34:35.701Z,54.50
2022-09-30T10:37:28.049Z,54.51
2022-09-30T10:40:07.709Z,54.27
2022-09-30T10:42:39.602Z,53.77
2022-09-30T10:45:18.851Z,53.65
2022-09-30T10:47:50.057Z,53.39
2022-09-30T10:50:25.327Z,53.40
2022-09-30T10:53:03.892Z,53.66
2022-09-30T10:55:42.191Z,53.35
2022-09-30T10:58:49.924Z,53.52
2022-09-30T11:01:32.569Z,53.53
2022-09-30T11:04:25.934Z,53.10
2022-09-30T11:07:02.265Z,52.92
2022-09-30T11:09:45.981Z,52.81
2022-09-30T11:12:44.875Z,51.96
2022-09-30T11:15:44.243Z,52.08
2022-09-30T11:18:11.249Z,51.86
2022-09-30T11:21:01.910Z,51.00
2022-09-30T11:23:38.168Z,50.38
2022-09-30T11:26:12.781Z,50.75
2022-09-30T11:29:13.246Z,51.22
2022-09-30T11:32:06.345Z,51.45
2022-09-30T11:34:46.345Z,51.97
2022-09-30T11:37:47.180Z,52.28
2022-09-30T11:40:40.707Z,52.16
2022-09-30T11:43:38.255Z,52.13
2022-09-30T11:46:34.165Z,51.67
2022-09-30T11:49:26.057Z,52.14
2022-09-30T11:52:34.118Z,52.79
2022-09-30T11:55:51.139Z,52.83
2022-09-30T11:58:40.619Z,52.84
2022-09-30T12:01:25.220Z,52.96
2022-09-30T12:04:20.489Z,52.84
2022-09-30T12:06:55.040Z,53.24
2022-09-30T12:09:33.086Z,52.97
2022-09-30T12:12:16.582Z,52.76
2022-09-30T12:14:57.396Z,52.98
2022-09-30T12:17:34.735Z,52.44
2022-09-30T12:20:22.029Z,52.57
2022-09-30T12:22:51.715Z,52.78
2022-09-30T12:25:40.893Z,52.51
2022-09-30T12:28:43.295Z,52.55
2022-09-30T12:31:20.795Z,52.15
2022-09-30T12:34:02.963Z,52.68
2022-09-30T12:36:45.798Z,52.29
2022-09-30T12:39:51.023Z,52.81
2022-09-30T12:43:03.096Z,53.19
2022-09-30T12:45:56.406Z,53.69
2022-09-30T12:48:34.319Z,55.18
2022-09-30T12:51:01.755Z,55.66
2022-09-30T12:53:36.793Z,56.32
2022-09-30T12:56:10.759Z,55.82
2022-09-30T12:58:45.157Z,55.49
2022-09-30T13:01:22.902Z,55.81
2022-09-30T13:04:10.231Z,55.07
2022-09-30T13:06:46.556Z,54.52
2022-09-30T13:09:16.567Z,54.37
2022-09-30T13:11:55.702Z,53.17
2022-09-30T13:14:43.483Z,52.33
2022-09-30T13:17:10.626Z,52.47
2022-09-30T13:19:40.300Z,51.39
2022-09-30T13:22:19.894Z,50.00
2022-09-30T13:25:15.988Z,49.08
2022-09-30T13:27:46.670Z,48.56
2022-09-30T13:30:13.596Z,47.73
2022-09-30T13:32:45.877Z,45.87
2022-09-30T13:35:35.019Z,45.21
2022-09-30T13:38:14.338Z,44.98
2022-09-30T13:41:05.684Z,44.29
2022-09-30T13:43:38.999Z,43.67
2022-09-30T13:46:17.022Z,43.57
2022-09-30T13:48:57.416Z,43.55
2022-09-30T13:51:28.616Z,43.26
2022-09-30T13:54:03.817Z,42.39
2022-09-30T13:56:36.042Z,41.77
2022-09-30T13:59:38.921Z,41.63
2022-09-30T14:02:46.700Z,41.65
2022-09-30T14:05:42.837Z,41.50
2022-09-30T14:08:33.865Z,41.44
2022-09-30T14:11:19.708Z,41.77
2022-09-30T14:14:31.055Z,42.70
2022-09-30T14:17:30.137Z,42.13
2022-09-30T14:20:15.822Z,41.48
2022-09-30T14:22:43.030Z,41.43
2022-09-30T14:25:19.895Z,40.85
2022-09-30T14:28:06.274Z,40.77
2022-09-30T14:30:41.602Z,40.64
2022-09-30T14:33:24.451Z,40.86
2022-09-30T14:35:54.561Z,41.00
2022-09-30T14:38:28.231Z,41.13
2022-09-30T14:40:59.860Z,41.30
2022-09-30T14:43:37.769Z,41.45
2022-09-30T14:46:26.922Z,41.58
2022-09-30T14:48:57.434Z,42.01
2022-09-30T14:51:26.403Z,41.90
2022-09-30T14:54:02.617Z,41.82
2022-09-30T14:56:34.489Z,42.26
2022-09-30T14:59:24.893Z,42.51
2022-09-30T15:01:58.209Z,42.80
2022-09-30T15:04:39.140Z,42.69
2022-09-30T15:07:11.821Z,43.25
2022-09-30T15:09:43.548Z,43.39
2022-09-30T15:12:17.145Z,43.10
2022-09-30T15:14:54.926Z,42.90
2022-09-30T15:17:28.492Z,42.61
2022-09-30T15:19:57.993Z,42.82
2022-09-30T15:22:28.973Z,42.88
2022-09-30T15:24:59.917Z,42.79
2022-09-30T15:27:36.982Z,42.79
2022-09-30T15:30:16.409Z,42.67
2022-09-30T15:32:45.063Z,42.77
2022-09-30T15:35:22.385Z,42.92
2022-09-30T15:37:51.208Z,42.97
2022-09-30T15:40:43.118Z,43.05
2022-09-30T15:43:15.644Z,42.96
2022-09-30T15:45:55.105Z,42.68
2022-09-30T15:48:23.589Z,42.73
2022-09-30T15:50:54.105Z,42.61
2022-09-30T15:53:29.767Z,43.00
2022-09-30T15:56:18.251Z,43.49
2022-09-30T15:59:06.494Z,43.38
2022-09-30T16:01:37.305Z,43.36
2022-09-30T16:04:14.355Z,43.51
2022-09-30T16:06:41.196Z,43.68
2022-09-30T16:09:20.115Z,44.33
2022-09-30T16:11:59.096Z,44.45
2022-09-30T16:14:33.369Z,44.84
2022-09-30T16:17:04.120Z,45.04
2022-09-30T16:19:32.856Z,45.71
2022-09-30T16:22:00.392Z,45.19
2022-09-30T16:24:28.508Z,45.43
2022-09-30T16:26:58.488Z,45.34
2022-09-30T16:29:27.197Z,45.55
2022-09-30T16:31:56.821Z,46.06
2022-09-30T16:34:26.126Z,46.26
2022-09-30T16:36:55.964Z,46.60
2022-09-30T16:39:22.904Z,46.69
2022-09-30T16:41:51.353Z,47.22
2022-09-30T16:44:18.352Z,47.25
2022-09-30T16:46:45.383Z,47.42
2022-09-30T16:49:16.473Z,47.82
2022-09-30T16:51:43.794Z,47.63
2022-09-30T16:54:12.270Z,47.63
2022-09-30T16:56:39.733Z,48.00
2022-09-30T16:59:15.523Z,48.01
2022-09-30T17:01:42.583Z,48.07
2022-09-30T17:04:14.016Z,48.35
2022-09-30T17:06:44.333Z,48.44
2022-09-30T17:09:11.433Z,48.88
2022-09-30T17:11:38.465Z,49.13
2022-09-30T17:14:06.091Z,49.58
2022-09-30T17:16:33.786Z,50.00
2022-09-30T17:19:01.076Z,49.79
2022-09-30T17:21:28.418Z,50.07
2022-09-30T17:23:55.806Z,49.80
2022-09-30T17:26:23.071Z,50.30
2022-09-30T17:28:50.005Z,50.50
2022-09-30T17:31:18.203Z,50.42
2022-09-30T17:33:45.568Z,50.13
2022-09-30T17:36:14.137Z,50.31
2022-09-30T17:38:41.738Z,50.64
2022-09-30T17:41:31.617Z,50.83
2022-09-30T17:44:02.518Z,51.20
2022-09-30T17:46:43.075Z,51.06
2022-09-30T17:49:17.000Z,50.96
2022-09-30T17:51:46.644Z,51.20
2022-09-30T17:54:13.593Z,51.74
2022-09-30T17:56:43.002Z,51.43
2022-09-30T17:59:13.062Z,51.55
2022-09-30T18:01:41.948Z,51.67
2022-09-30T18:04:08.955Z,51.48
2022-09-30T18:06:36.905Z,52.02
2022-09-30T18:09:04.291Z,51.71
2022-09-30T18:11:31.668Z,51.84
2022-09-30T18:14:02.043Z,51.83
2022-09-30T18:16:33.883Z,52.04
2022-09-30T18:19:04.608Z,52.19
2022-09-30T18:21:35.033Z,52.20
2022-09-30T18:24:05.319Z,52.29
2022-09-30T18:26:35.983Z,52.16
2022-09-30T18:29:05.860Z,51.99
2022-09-30T18:31:37.128Z,52.19
2022-09-30T18:34:06.236Z,52.29
2022-09-30T18:36:33.506Z,52.25
2022-09-30T18:39:02.736Z,52.31
2022-09-30T18:41:32.135Z,52.32
2022-09-30T18:44:02.374Z,52.15
2022-09-30T18:46:32.490Z,52.55
2022-09-30T18:48:59.655Z,52.42
2022-09-30T18:51:26.803Z,52.63
2022-09-30T18:54:00.149Z,53.07
2022-09-30T18:56:33.805Z,52.93
2022-09-30T18:59:05.389Z,53.12
2022-09-30T19:01:34.126Z,53.19
2022-09-30T19:04:04.849Z,53.47
2022-09-30T19:06:32.759Z,53.67
2022-09-30T19:08:59.799Z,53.82
2022-09-30T19:11:30.504Z,53.62
2022-09-30T19:13:59.231Z,53.72
2022-09-30T19:16:26.291Z,54.17
2022-09-30T19:18:55.227Z,53.91
2022-09-30T19:21:22.720Z,54.21
2022-09-30T19:23:50.164Z,53.92
2022-09-30T19:26:17.165Z,53.93
2022-09-30T19:28:45.344Z,54.06
2022-09-30T19:31:17.254Z,54.08
2022-09-30T19:33:55.199Z,54.16
2022-09-30T19:36:25.452Z,54.27
2022-09-30T19:39:05.566Z,54.24
2022-09-30T19:41:36.893Z,54.24
2022-09-30T19:44:04.649Z,54.47
2022-09-30T19:46:31.924Z,54.18
2022-09-30T19:48:59.048Z,54.47
2022-09-30T19:51:29.049Z,54.43
2022-09-30T19:54:06.333Z,54.35
2022-09-30T19:56:36.638Z,54.40
2022-09-30T19:59:04.156Z,54.60
2022-09-30T20:01:34.595Z,54.58
2022-09-30T20:04:04.910Z,54.67
2022-09-30T20:06:34.262Z,54.66
2022-09-30T20:09:04.297Z,54.68
2022-09-30T20:11:36.219Z,54.93
2022-09-30T20:14:25.353Z,54.64
2022-09-30T20:16:53.593Z,54.73
2022-09-30T20:19:22.430Z,54.57
2022-09-30T20:21:50.075Z,54.78
2022-09-30T20:24:18.458Z,54.81
2022-09-30T20:26:46.702Z,55.16
2022-09-30T20:29:13.695Z,55.12
2022-09-30T20:31:43.149Z,55.14
2022-09-30T20:34:13.538Z,55.21
2022-09-30T20:36:41.084Z,55.17
2022-09-30T20:39:08.380Z,55.33
2022-09-30T20:41:37.505Z,54.96
2022-09-30T20:44:14.092Z,55.14
2022-09-30T20:46:41.859Z,55.06
2022-09-30T20:49:09.652Z,55.07
2022-09-30T20:51:36.705Z,55.11
2022-09-30T20:54:03.941Z,54.95
2022-09-30T20:56:44.445Z,55.02
2022-09-30T20:59:18.061Z,55.27
2022-09-30T21:01:45.004Z,55.20
2022-09-30T21:04:11.973Z,55.37
2022-09-30T21:06:39.372Z,55.11
2022-09-30T21:09:06.539Z,55.57
2022-09-30T21:11:33.762Z,55.31
2022-09-30T21:14:01.734Z,55.43
2022-09-30T21:16:29.750Z,55.77
2022-09-30T21:18:56.953Z,55.42
2022-09-30T21:21:26.709Z,55.62
2022-09-30T21:23:58.887Z,55.43
2022-09-30T21:26:31.886Z,55.48
2022-09-30T21:28:59.920Z,55.52
2022-09-30T21:31:27.728Z,55.32
2022-09-30T21:33:58.456Z,55.83
2022-09-30T21:36:27.770Z,55.86
2022-09-30T21:38:55.161Z,55.59
2022-09-30T21:41:25.858Z,55.54
2022-09-30T21:43:53.557Z,55.61
2022-09-30T21:46:23.095Z,56.14
2022-09-30T21:48:50.258Z,55.88
2022-09-30T21:51:18.031Z,55.77
2022-09-30T21:53:46.808Z,56.13
2022-09-30T21:56:13.860Z,55.91
2022-09-30T21:58:40.992Z,55.82
2022-09-30T22:01:08.084Z,56.17
2022-09-30T22:03:39.925Z,56.20
2022-09-30T22:06:08.645Z,55.99
2022-09-30T22:08:40.232Z,56.33
2022-09-30T22:11:11.280Z,56.28
2022-09-30T22:13:46.441Z,55.95
2022-09-30T22:16:16.246Z,56.27
2022-09-30T22:18:43.640Z,56.39
2022-09-30T22:21:13.659Z,56.33
2022-09-30T22:23:40.993Z,55.69
2022-09-30T22:26:18.565Z,56.15
2022-09-30T22:28:47.335Z,56.20
2022-09-30T22:31:19.859Z,56.12
2022-09-30T22:34:08.232Z,56.37
2022-09-30T22:36:54.603Z,56.42
2022-09-30T22:39:22.678Z,56.19
2022-09-30T22:41:54.954Z,56.18
2022-09-30T22:44:25.582Z,56.60
2022-09-30T22:47:00.131Z,56.61
2022-09-30T22:49:28.957Z,56.37
2022-09-30T22:51:57.294Z,56.31
2022-09-30T22:54:26.341Z,56.38
2022-09-30T22:56:54.832Z,56.38
2022-09-30T22:59:23.570Z,56.62
2022-09-30T23:01:50.489Z,56.40
2022-09-30T23:04:18.300Z,56.90
2022-09-30T23:06:52.405Z,56.73
2022-09-30T23:09:20.914Z,56.71
2022-09-30T23:11:53.381Z,56.93
2022-09-30T23:14:21.914Z,56.70
2022-09-30T23:16:49.667Z,56.96
2022-09-30T23:19:17.008Z,56.77
2022-09-30T23:21:44.239Z,56.90
2022-09-30T23:24:11.986Z,57.07
2022-09-30T23:26:39.707Z,57.00
2022-09-30T23:29:11.767Z,57.33
2022-09-30T23:31:39.401Z,57.18
2022-09-30T23:34:07.433Z,57.09
2022-09-30T23:36:36.922Z,57.06
2022-09-30T23:39:15.373Z,56.98
2022-09-30T23:41:46.240Z,57.21
2022-09-30T23:44:15.509Z,57.15
2022-09-30T23:47:02.534Z,57.37
2022-09-30T23:49:33.502Z,57.23
2022-09-30T23:52:00.603Z,56.83
2022-09-30T23:54:27.534Z,57.16
2022-09-30T23:56:54.442Z,56.98
2022-09-30T23:59:21.581Z,57.22
